sensor_id;sensor_type;location;lat;lon;timestamp;P1;durP1;ratioP1;P2;durP2;ratioP2
35959;SDS011;22043;50.970;7.192;2022-10-31T00:02:00;4.97;;;2.30;;
35959;SDS011;22043;50.970;7.192;2022-10-31T00:04:26;7.18;;;2.78;;
35959;SDS011;22043;50.970;7.192;2022-10-31T00:06:51;3.97;;;1.83;;
35959;SDS011;22043;50.970;7.192;2022-10-31T00:09:17;4.40;;;2.00;;
35959;SDS011;22043;50.970;7.192;2022-10-31T00:11:43;5.03;;;1.88;;
35959;SDS011;22043;50.970;7.192;2022-10-31T00:14:08;3.65;;;2.08;;
35959;SDS011;22043;50.970;7.192;2022-10-31T00:16:34;8.18;;;2.83;;
35959;SDS011;22043;50.970;7.192;2022-10-31T00:19:01;3.80;;;1.90;;
35959;SDS011;22043;50.970;7.192;2022-10-31T00:21:29;7.15;;;2.63;;
35959;SDS011;22043;50.970;7.192;2022-10-31T00:23:56;9.40;;;2.10;;
35959;SDS011;22043;50.970;7.192;2022-10-31T00:26:23;8.82;;;2.25;;
35959;SDS011;22043;50.970;7.192;2022-10-31T00:28:48;4.20;;;1.80;;
35959;SDS011;22043;50.970;7.192;2022-10-31T00:31:16;6.10;;;1.93;;
35959;SDS011;22043;50.970;7.192;2022-10-31T00:33:42;19.00;;;2.38;;
35959;SDS011;22043;50.970;7.192;2022-10-31T00:36:13;7.15;;;1.80;;
35959;SDS011;22043;50.970;7.192;2022-10-31T00:38:41;3.65;;;2.10;;
35959;SDS011;22043;50.970;7.192;2022-10-31T00:41:07;4.80;;;1.67;;
35959;SDS011;22043;50.970;7.192;2022-10-31T00:43:33;4.18;;;2.00;;
35959;SDS011;22043;50.970;7.192;2022-10-31T00:45:59;3.15;;;1.67;;
35959;SDS011;22043;50.970;7.192;2022-10-31T00:48:24;4.25;;;2.08;;
35959;SDS011;22043;50.970;7.192;2022-10-31T00:50:51;6.20;;;2.22;;
35959;SDS011;22043;50.970;7.192;2022-10-31T00:53:17;5.18;;;1.98;;
35959;SDS011;22043;50.970;7.192;2022-10-31T00:55:43;6.80;;;2.55;;
35959;SDS011;22043;50.970;7.192;2022-10-31T00:58:08;7.97;;;2.20;;
35959;SDS011;22043;50.970;7.192;2022-10-31T01:00:34;4.95;;;2.15;;
35959;SDS011;22043;50.970;7.192;2022-10-31T01:03:00;4.43;;;2.13;;
35959;SDS011;22043;50.970;7.192;2022-10-31T01:05:26;7.85;;;2.72;;
35959;SDS011;22043;50.970;7.192;2022-10-31T01:07:51;4.95;;;2.40;;
35959;SDS011;22043;50.970;7.192;2022-10-31T01:10:17;8.93;;;2.88;;
35959;SDS011;22043;50.970;7.192;2022-10-31T01:12:44;7.15;;;2.03;;
35959;SDS011;22043;50.970;7.192;2022-10-31T01:15:13;4.15;;;2.00;;
35959;SDS011;22043;50.970;7.192;2022-10-31T01:17:41;7.00;;;2.80;;
35959;SDS011;22043;50.970;7.192;2022-10-31T01:20:10;5.68;;;2.67;;
35959;SDS011;22043;50.970;7.192;2022-10-31T01:22:37;8.40;;;2.38;;
35959;SDS011;22043;50.970;7.192;2022-10-31T01:25:03;4.65;;;2.22;;
35959;SDS011;22043;50.970;7.192;2022-10-31T01:27:30;6.72;;;2.20;;
35959;SDS011;22043;50.970;7.192;2022-10-31T01:29:56;7.43;;;1.85;;
35959;SDS011;22043;50.970;7.192;2022-10-31T01:32:21;3.22;;;1.88;;
35959;SDS011;22043;50.970;7.192;2022-10-31T01:34:49;4.47;;;2.00;;
35959;SDS011;22043;50.970;7.192;2022-10-31T01:37:15;5.32;;;1.95;;
35959;SDS011;22043;50.970;7.192;2022-10-31T01:39:41;3.97;;;1.45;;
35959;SDS011;22043;50.970;7.192;2022-10-31T01:42:09;5.43;;;2.03;;
35959;SDS011;22043;50.970;7.192;2022-10-31T01:49:53;6.50;;;1.85;;
35959;SDS011;22043;50.970;7.192;2022-10-31T01:52:36;5.88;;;2.60;;
35959;SDS011;22043;50.970;7.192;2022-10-31T01:55:13;7.63;;;3.10;;
35959;SDS011;22043;50.970;7.192;2022-10-31T01:57:46;6.03;;;2.30;;
35959;SDS011;22043;50.970;7.192;2022-10-31T02:00:16;7.75;;;2.63;;
35959;SDS011;22043;50.970;7.192;2022-10-31T02:02:44;5.53;;;2.28;;
35959;SDS011;22043;50.970;7.192;2022-10-31T02:05:21;11.40;;;2.65;;
35959;SDS011;22043;50.970;7.192;2022-10-31T02:08:01;6.63;;;2.45;;
35959;SDS011;22043;50.970;7.192;2022-10-31T02:10:32;6.32;;;2.00;;
35959;SDS011;22043;50.970;7.192;2022-10-31T02:13:00;5.05;;;2.55;;
35959;SDS011;22043;50.970;7.192;2022-10-31T02:15:30;6.32;;;2.60;;
35959;SDS011;22043;50.970;7.192;2022-10-31T02:17:56;4.40;;;2.00;;
35959;SDS011;22043;50.970;7.192;2022-10-31T02:20:23;5.57;;;2.20;;
35959;SDS011;22043;50.970;7.192;2022-10-31T02:33:59;5.78;;;2.60;;
35959;SDS011;22043;50.970;7.192;2022-10-31T02:36:42;7.03;;;3.23;;
35959;SDS011;22043;50.970;7.192;2022-10-31T02:39:24;7.18;;;2.40;;
35959;SDS011;22043;50.970;7.192;2022-10-31T02:42:05;7.70;;;2.40;;
35959;SDS011;22043;50.970;7.192;2022-10-31T02:48:03;8.18;;;2.22;;
35959;SDS011;22043;50.970;7.192;2022-10-31T02:50:37;7.07;;;2.60;;
35959;SDS011;22043;50.970;7.192;2022-10-31T02:53:08;7.28;;;2.60;;
35959;SDS011;22043;50.970;7.192;2022-10-31T02:58:02;11.97;;;2.70;;
35959;SDS011;22043;50.970;7.192;2022-10-31T03:00:42;7.93;;;2.65;;
35959;SDS011;22043;50.970;7.192;2022-10-31T03:03:25;5.30;;;2.33;;
35959;SDS011;22043;50.970;7.192;2022-10-31T03:06:20;7.50;;;3.08;;
35959;SDS011;22043;50.970;7.192;2022-10-31T03:09:02;5.28;;;2.55;;
35959;SDS011;22043;50.970;7.192;2022-10-31T03:11:45;5.47;;;2.55;;
35959;SDS011;22043;50.970;7.192;2022-10-31T03:14:23;6.72;;;2.65;;
35959;SDS011;22043;50.970;7.192;2022-10-31T03:16:58;5.50;;;2.72;;
35959;SDS011;22043;50.970;7.192;2022-10-31T03:19:49;6.22;;;2.78;;
35959;SDS011;22043;50.970;7.192;2022-10-31T03:22:32;7.00;;;3.07;;
35959;SDS011;22043;50.970;7.192;2022-10-31T03:25:01;6.35;;;2.78;;
35959;SDS011;22043;50.970;7.192;2022-10-31T03:27:29;3.72;;;1.92;;
35959;SDS011;22043;50.970;7.192;2022-10-31T03:30:00;3.20;;;1.25;;
35959;SDS011;22043;50.970;7.192;2022-10-31T03:32:51;1.85;;;1.20;;
35959;SDS011;22043;50.970;7.192;2022-10-31T03:35:22;4.60;;;1.80;;
35959;SDS011;22043;50.970;7.192;2022-10-31T03:37:51;6.43;;;2.17;;
35959;SDS011;22043;50.970;7.192;2022-10-31T03:40:20;3.47;;;1.65;;
35959;SDS011;22043;50.970;7.192;2022-10-31T03:42:51;1.40;;;1.00;;
35959;SDS011;22043;50.970;7.192;2022-10-31T03:45:23;3.13;;;1.65;;
35959;SDS011;22043;50.970;7.192;2022-10-31T03:47:51;3.28;;;1.55;;
35959;SDS011;22043;50.970;7.192;2022-10-31T03:50:18;2.73;;;1.50;;
35959;SDS011;22043;50.970;7.192;2022-10-31T03:52:47;3.45;;;2.17;;
35959;SDS011;22043;50.970;7.192;2022-10-31T03:55:28;5.10;;;2.25;;
35959;SDS011;22043;50.970;7.192;2022-10-31T03:58:08;3.65;;;1.95;;
35959;SDS011;22043;50.970;7.192;2022-10-31T04:00:38;3.03;;;1.25;;
35959;SDS011;22043;50.970;7.192;2022-10-31T04:03:08;2.50;;;1.17;;
35959;SDS011;22043;50.970;7.192;2022-10-31T04:05:37;4.00;;;1.98;;
35959;SDS011;22043;50.970;7.192;2022-10-31T04:08:05;4.45;;;1.85;;
35959;SDS011;22043;50.970;7.192;2022-10-31T04:10:36;3.33;;;1.75;;
35959;SDS011;22043;50.970;7.192;2022-10-31T04:13:08;4.15;;;2.20;;
35959;SDS011;22043;50.970;7.192;2022-10-31T04:15:44;9.00;;;2.38;;
35959;SDS011;22043;50.970;7.192;2022-10-31T04:18:11;1.77;;;1.05;;
35959;SDS011;22043;50.970;7.192;2022-10-31T04:20:38;2.30;;;0.90;;
35959;SDS011;22043;50.970;7.192;2022-10-31T04:23:19;2.15;;;0.95;;
35959;SDS011;22043;50.970;7.192;2022-10-31T04:25:49;3.42;;;1.60;;
35959;SDS011;22043;50.970;7.192;2022-10-31T04:28:16;3.38;;;1.35;;
35959;SDS011;22043;50.970;7.192;2022-10-31T04:30:42;2.28;;;1.08;;
35959;SDS011;22043;50.970;7.192;2022-10-31T04:33:08;1.60;;;0.95;;
35959;SDS011;22043;50.970;7.192;2022-10-31T04:35:34;2.45;;;1.10;;
35959;SDS011;22043;50.970;7.192;2022-10-31T04:37:59;2.05;;;1.38;;
35959;SDS011;22043;50.970;7.192;2022-10-31T04:40:25;4.22;;;1.15;;
35959;SDS011;22043;50.970;7.192;2022-10-31T04:42:51;2.58;;;1.10;;
35959;SDS011;22043;50.970;7.192;2022-10-31T04:45:18;4.03;;;1.00;;
35959;SDS011;22043;50.970;7.192;2022-10-31T04:47:43;2.13;;;1.20;;
35959;SDS011;22043;50.970;7.192;2022-10-31T04:50:09;2.08;;;1.20;;
35959;SDS011;22043;50.970;7.192;2022-10-31T04:52:40;2.95;;;1.40;;
35959;SDS011;22043;50.970;7.192;2022-10-31T04:55:08;2.78;;;1.25;;
35959;SDS011;22043;50.970;7.192;2022-10-31T04:58:11;3.13;;;1.52;;
35959;SDS011;22043;50.970;7.192;2022-10-31T05:00:36;2.67;;;1.42;;
35959;SDS011;22043;50.970;7.192;2022-10-31T05:03:03;2.30;;;1.23;;
35959;SDS011;22043;50.970;7.192;2022-10-31T05:05:29;2.50;;;1.17;;
35959;SDS011;22043;50.970;7.192;2022-10-31T05:07:59;2.53;;;1.33;;
35959;SDS011;22043;50.970;7.192;2022-10-31T05:10:26;3.75;;;1.38;;
35959;SDS011;22043;50.970;7.192;2022-10-31T05:12:57;2.05;;;1.40;;
35959;SDS011;22043;50.970;7.192;2022-10-31T05:15:43;3.00;;;1.55;;
35959;SDS011;22043;50.970;7.192;2022-10-31T05:18:27;2.80;;;1.20;;
35959;SDS011;22043;50.970;7.192;2022-10-31T05:21:11;4.10;;;2.15;;
35959;SDS011;22043;50.970;7.192;2022-10-31T05:23:43;3.25;;;1.45;;
35959;SDS011;22043;50.970;7.192;2022-10-31T05:26:08;2.63;;;1.65;;
35959;SDS011;22043;50.970;7.192;2022-10-31T05:28:34;3.63;;;1.23;;
35959;SDS011;22043;50.970;7.192;2022-10-31T05:31:01;4.50;;;2.22;;
35959;SDS011;22043;50.970;7.192;2022-10-31T05:33:27;2.40;;;1.70;;
35959;SDS011;22043;50.970;7.192;2022-10-31T05:36:11;4.72;;;2.13;;
35959;SDS011;22043;50.970;7.192;2022-10-31T05:38:59;2.00;;;0.95;;
35959;SDS011;22043;50.970;7.192;2022-10-31T05:41:33;3.25;;;1.85;;
35959;SDS011;22043;50.970;7.192;2022-10-31T05:44:04;5.00;;;1.42;;
35959;SDS011;22043;50.970;7.192;2022-10-31T05:46:35;2.70;;;1.30;;
35959;SDS011;22043;50.970;7.192;2022-10-31T05:49:20;5.30;;;1.70;;
35959;SDS011;22043;50.970;7.192;2022-10-31T05:52:06;2.50;;;1.15;;
35959;SDS011;22043;50.970;7.192;2022-10-31T05:54:38;3.22;;;1.95;;
35959;SDS011;22043;50.970;7.192;2022-10-31T05:57:04;3.65;;;1.70;;
35959;SDS011;22043;50.970;7.192;2022-10-31T05:59:30;2.78;;;1.65;;
35959;SDS011;22043;50.970;7.192;2022-10-31T06:01:57;3.10;;;1.45;;
35959;SDS011;22043;50.970;7.192;2022-10-31T06:04:41;2.55;;;1.42;;
35959;SDS011;22043;50.970;7.192;2022-10-31T06:07:07;1.45;;;1.00;;
35959;SDS011;22043;50.970;7.192;2022-10-31T06:09:32;2.47;;;1.63;;
35959;SDS011;22043;50.970;7.192;2022-10-31T06:11:58;2.15;;;1.40;;
35959;SDS011;22043;50.970;7.192;2022-10-31T06:14:23;2.58;;;1.58;;
35959;SDS011;22043;50.970;7.192;2022-10-31T06:16:54;3.40;;;1.65;;
35959;SDS011;22043;50.970;7.192;2022-10-31T06:19:41;5.00;;;1.70;;
35959;SDS011;22043;50.970;7.192;2022-10-31T06:22:08;3.20;;;1.42;;
35959;SDS011;22043;50.970;7.192;2022-10-31T06:24:36;2.10;;;1.00;;
35959;SDS011;22043;50.970;7.192;2022-10-31T06:27:22;2.60;;;1.13;;
35959;SDS011;22043;50.970;7.192;2022-10-31T06:29:48;2.90;;;1.58;;
35959;SDS011;22043;50.970;7.192;2022-10-31T06:32:26;2.35;;;1.27;;
35959;SDS011;22043;50.970;7.192;2022-10-31T06:34:51;4.28;;;1.35;;
35959;SDS011;22043;50.970;7.192;2022-10-31T06:37:17;3.55;;;2.13;;
35959;SDS011;22043;50.970;7.192;2022-10-31T06:39:46;3.75;;;1.52;;
35959;SDS011;22043;50.970;7.192;2022-10-31T06:42:15;2.75;;;1.27;;
35959;SDS011;22043;50.970;7.192;2022-10-31T06:44:42;2.38;;;1.02;;
35959;SDS011;22043;50.970;7.192;2022-10-31T06:47:26;3.08;;;1.75;;
35959;SDS011;22043;50.970;7.192;2022-10-31T06:49:54;2.80;;;1.27;;
35959;SDS011;22043;50.970;7.192;2022-10-31T06:52:22;2.92;;;1.55;;
35959;SDS011;22043;50.970;7.192;2022-10-31T06:54:49;2.40;;;1.35;;
35959;SDS011;22043;50.970;7.192;2022-10-31T06:57:15;3.50;;;1.42;;
35959;SDS011;22043;50.970;7.192;2022-10-31T06:59:41;2.33;;;0.93;;
35959;SDS011;22043;50.970;7.192;2022-10-31T07:02:09;3.72;;;2.47;;
35959;SDS011;22043;50.970;7.192;2022-10-31T07:04:37;3.33;;;1.67;;
35959;SDS011;22043;50.970;7.192;2022-10-31T07:07:03;2.88;;;1.52;;
35959;SDS011;22043;50.970;7.192;2022-10-31T07:09:29;2.40;;;1.15;;
35959;SDS011;22043;50.970;7.192;2022-10-31T07:11:58;2.33;;;1.15;;
35959;SDS011;22043;50.970;7.192;2022-10-31T07:14:23;2.00;;;1.48;;
35959;SDS011;22043;50.970;7.192;2022-10-31T07:16:49;2.42;;;1.52;;
35959;SDS011;22043;50.970;7.192;2022-10-31T07:19:21;3.00;;;1.48;;
35959;SDS011;22043;50.970;7.192;2022-10-31T07:21:46;4.10;;;2.28;;
35959;SDS011;22043;50.970;7.192;2022-10-31T07:24:14;5.20;;;2.00;;
35959;SDS011;22043;50.970;7.192;2022-10-31T07:26:39;2.28;;;1.30;;
35959;SDS011;22043;50.970;7.192;2022-10-31T07:29:07;2.72;;;1.50;;
35959;SDS011;22043;50.970;7.192;2022-10-31T07:31:33;4.35;;;1.70;;
35959;SDS011;22043;50.970;7.192;2022-10-31T07:34:04;3.78;;;1.55;;
35959;SDS011;22043;50.970;7.192;2022-10-31T07:36:35;4.05;;;1.90;;
35959;SDS011;22043;50.970;7.192;2022-10-31T07:39:02;3.33;;;1.58;;
35959;SDS011;22043;50.970;7.192;2022-10-31T07:41:30;4.07;;;1.92;;
35959;SDS011;22043;50.970;7.192;2022-10-31T07:43:56;4.18;;;2.05;;
35959;SDS011;22043;50.970;7.192;2022-10-31T07:46:40;2.63;;;1.83;;
35959;SDS011;22043;50.970;7.192;2022-10-31T07:49:44;3.15;;;1.65;;
35959;SDS011;22043;50.970;7.192;2022-10-31T07:52:28;3.15;;;1.80;;
35959;SDS011;22043;50.970;7.192;2022-10-31T07:55:00;2.85;;;1.90;;
35959;SDS011;22043;50.970;7.192;2022-10-31T07:57:25;4.90;;;1.85;;
35959;SDS011;22043;50.970;7.192;2022-10-31T07:59:51;4.40;;;1.80;;
35959;SDS011;22043;50.970;7.192;2022-10-31T08:02:17;6.22;;;2.35;;
35959;SDS011;22043;50.970;7.192;2022-10-31T08:04:46;3.17;;;1.85;;
35959;SDS011;22043;50.970;7.192;2022-10-31T08:07:37;5.18;;;1.83;;
35959;SDS011;22043;50.970;7.192;2022-10-31T08:10:05;2.80;;;1.40;;
35959;SDS011;22043;50.970;7.192;2022-10-31T08:12:33;2.63;;;1.38;;
35959;SDS011;22043;50.970;7.192;2022-10-31T08:14:59;3.88;;;2.05;;
35959;SDS011;22043;50.970;7.192;2022-10-31T08:17:24;3.38;;;1.23;;
35959;SDS011;22043;50.970;7.192;2022-10-31T08:19:55;3.60;;;1.40;;
35959;SDS011;22043;50.970;7.192;2022-10-31T08:22:33;3.88;;;2.10;;
35959;SDS011;22043;50.970;7.192;2022-10-31T08:25:00;3.87;;;2.07;;
35959;SDS011;22043;50.970;7.192;2022-10-31T08:27:26;2.47;;;1.23;;
35959;SDS011;22043;50.970;7.192;2022-10-31T08:29:54;5.40;;;1.80;;
35959;SDS011;22043;50.970;7.192;2022-10-31T08:32:21;3.78;;;1.88;;
35959;SDS011;22043;50.970;7.192;2022-10-31T08:35:05;4.88;;;2.17;;
35959;SDS011;22043;50.970;7.192;2022-10-31T08:37:53;9.80;;;4.03;;
35959;SDS011;22043;50.970;7.192;2022-10-31T08:40:23;3.42;;;1.85;;
35959;SDS011;22043;50.970;7.192;2022-10-31T08:42:56;4.28;;;2.92;;
35959;SDS011;22043;50.970;7.192;2022-10-31T08:45:22;3.83;;;2.08;;
35959;SDS011;22043;50.970;7.192;2022-10-31T08:47:48;4.80;;;1.85;;
35959;SDS011;22043;50.970;7.192;2022-10-31T08:50:14;3.30;;;1.63;;
35959;SDS011;22043;50.970;7.192;2022-10-31T08:52:44;3.78;;;2.40;;
35959;SDS011;22043;50.970;7.192;2022-10-31T08:55:10;4.93;;;1.75;;
35959;SDS011;22043;50.970;7.192;2022-10-31T08:57:58;4.00;;;1.73;;
35959;SDS011;22043;50.970;7.192;2022-10-31T09:00:33;3.33;;;1.95;;
35959;SDS011;22043;50.970;7.192;2022-10-31T09:03:27;2.78;;;1.75;;
35959;SDS011;22043;50.970;7.192;2022-10-31T09:05:54;3.75;;;1.90;;
35959;SDS011;22043;50.970;7.192;2022-10-31T09:08:21;3.50;;;1.92;;
35959;SDS011;22043;50.970;7.192;2022-10-31T09:10:49;4.00;;;2.20;;
35959;SDS011;22043;50.970;7.192;2022-10-31T09:13:23;2.70;;;1.30;;
35959;SDS011;22043;50.970;7.192;2022-10-31T09:16:09;4.28;;;1.83;;
35959;SDS011;22043;50.970;7.192;2022-10-31T09:18:35;3.97;;;1.45;;
35959;SDS011;22043;50.970;7.192;2022-10-31T09:21:01;2.88;;;1.88;;
35959;SDS011;22043;50.970;7.192;2022-10-31T09:25:55;3.75;;;1.85;;
35959;SDS011;22043;50.970;7.192;2022-10-31T09:28:35;2.10;;;1.45;;
35959;SDS011;22043;50.970;7.192;2022-10-31T09:31:06;3.03;;;1.30;;
35959;SDS011;22043;50.970;7.192;2022-10-31T09:33:52;3.15;;;1.88;;
35959;SDS011;22043;50.970;7.192;2022-10-31T09:36:42;3.88;;;1.98;;
35959;SDS011;22043;50.970;7.192;2022-10-31T09:39:16;4.88;;;1.52;;
35959;SDS011;22043;50.970;7.192;2022-10-31T09:41:50;2.70;;;1.58;;
35959;SDS011;22043;50.970;7.192;2022-10-31T09:44:28;2.63;;;1.35;;
35959;SDS011;22043;50.970;7.192;2022-10-31T09:50:49;5.45;;;2.10;;
35959;SDS011;22043;50.970;7.192;2022-10-31T09:53:46;3.70;;;1.20;;
35959;SDS011;22043;50.970;7.192;2022-10-31T09:56:21;2.75;;;1.45;;
35959;SDS011;22043;50.970;7.192;2022-10-31T09:58:54;3.95;;;1.88;;
35959;SDS011;22043;50.970;7.192;2022-10-31T10:04:14;2.95;;;1.48;;
35959;SDS011;22043;50.970;7.192;2022-10-31T10:07:02;9.27;;;2.17;;
35959;SDS011;22043;50.970;7.192;2022-10-31T10:09:42;3.28;;;1.65;;
35959;SDS011;22043;50.970;7.192;2022-10-31T10:18:03;3.42;;;2.13;;
35959;SDS011;22043;50.970;7.192;2022-10-31T10:20:46;3.50;;;2.00;;
35959;SDS011;22043;50.970;7.192;2022-10-31T10:23:40;3.38;;;1.45;;
35959;SDS011;22043;50.970;7.192;2022-10-31T10:26:34;4.03;;;1.38;;
35959;SDS011;22043;50.970;7.192;2022-10-31T10:29:16;3.50;;;1.75;;
35959;SDS011;22043;50.970;7.192;2022-10-31T10:31:48;3.03;;;1.42;;
35959;SDS011;22043;50.970;7.192;2022-10-31T10:34:18;6.80;;;2.67;;
35959;SDS011;22043;50.970;7.192;2022-10-31T10:36:49;3.13;;;1.75;;
35959;SDS011;22043;50.970;7.192;2022-10-31T10:39:30;3.63;;;1.48;;
35959;SDS011;22043;50.970;7.192;2022-10-31T10:42:07;5.18;;;1.55;;
35959;SDS011;22043;50.970;7.192;2022-10-31T10:44:56;3.08;;;1.13;;
35959;SDS011;22043;50.970;7.192;2022-10-31T10:47:42;3.47;;;1.60;;
35959;SDS011;22043;50.970;7.192;2022-10-31T10:50:23;4.05;;;1.88;;
35959;SDS011;22043;50.970;7.192;2022-10-31T10:55:56;3.22;;;2.15;;
35959;SDS011;22043;50.970;7.192;2022-10-31T10:58:40;2.47;;;1.27;;
35959;SDS011;22043;50.970;7.192;2022-10-31T11:01:14;4.27;;;1.40;;
35959;SDS011;22043;50.970;7.192;2022-10-31T11:03:40;3.08;;;1.40;;
35959;SDS011;22043;50.970;7.192;2022-10-31T11:09:08;4.18;;;1.63;;
35959;SDS011;22043;50.970;7.192;2022-10-31T11:11:35;2.15;;;1.13;;
35959;SDS011;22043;50.970;7.192;2022-10-31T11:14:05;8.15;;;2.30;;
35959;SDS011;22043;50.970;7.192;2022-10-31T11:16:42;3.35;;;1.40;;
35959;SDS011;22043;50.970;7.192;2022-10-31T11:19:16;2.63;;;1.48;;
35959;SDS011;22043;50.970;7.192;2022-10-31T11:21:47;4.85;;;1.67;;
35959;SDS011;22043;50.970;7.192;2022-10-31T11:24:15;3.75;;;1.90;;
35959;SDS011;22043;50.970;7.192;2022-10-31T11:26:43;2.30;;;1.55;;
35959;SDS011;22043;50.970;7.192;2022-10-31T11:29:14;4.10;;;2.05;;
35959;SDS011;22043;50.970;7.192;2022-10-31T11:31:51;2.40;;;1.00;;
35959;SDS011;22043;50.970;7.192;2022-10-31T11:35:08;2.60;;;1.60;;
35959;SDS011;22043;50.970;7.192;2022-10-31T11:37:15;3.20;;;1.38;;
35959;SDS011;22043;50.970;7.192;2022-10-31T11:39:51;3.00;;;1.73;;
35959;SDS011;22043;50.970;7.192;2022-10-31T11:42:23;5.05;;;1.42;;
35959;SDS011;22043;50.970;7.192;2022-10-31T11:44:51;2.00;;;1.05;;
35959;SDS011;22043;50.970;7.192;2022-10-31T11:47:21;3.17;;;1.85;;
35959;SDS011;22043;50.970;7.192;2022-10-31T11:49:53;2.50;;;0.95;;
35959;SDS011;22043;50.970;7.192;2022-10-31T11:52:27;2.38;;;1.30;;
35959;SDS011;22043;50.970;7.192;2022-10-31T11:55:01;1.85;;;0.98;;
35959;SDS011;22043;50.970;7.192;2022-10-31T11:57:46;1.30;;;0.68;;
35959;SDS011;22043;50.970;7.192;2022-10-31T12:00:38;1.55;;;0.73;;
35959;SDS011;22043;50.970;7.192;2022-10-31T12:05:49;2.97;;;1.77;;
35959;SDS011;22043;50.970;7.192;2022-10-31T12:08:15;3.95;;;1.05;;
35959;SDS011;22043;50.970;7.192;2022-10-31T12:13:33;1.67;;;1.17;;
35959;SDS011;22043;50.970;7.192;2022-10-31T12:41:51;1.65;;;0.88;;
35959;SDS011;22043;50.970;7.192;2022-10-31T12:44:43;1.73;;;0.85;;
35959;SDS011;22043;50.970;7.192;2022-10-31T12:47:20;1.95;;;1.05;;
35959;SDS011;22043;50.970;7.192;2022-10-31T12:49:58;2.28;;;0.93;;
35959;SDS011;22043;50.970;7.192;2022-10-31T12:52:47;1.35;;;0.80;;
35959;SDS011;22043;50.970;7.192;2022-10-31T12:58:14;1.58;;;0.70;;
35959;SDS011;22043;50.970;7.192;2022-10-31T13:00:49;2.08;;;0.82;;
35959;SDS011;22043;50.970;7.192;2022-10-31T13:06:40;1.08;;;0.80;;
35959;SDS011;22043;50.970;7.192;2022-10-31T13:12:55;1.30;;;0.80;;
35959;SDS011;22043;50.970;7.192;2022-10-31T13:15:27;1.50;;;0.70;;
35959;SDS011;22043;50.970;7.192;2022-10-31T13:17:58;0.93;;;0.60;;
35959;SDS011;22043;50.970;7.192;2022-10-31T13:20:28;1.75;;;1.20;;
35959;SDS011;22043;50.970;7.192;2022-10-31T13:25:41;1.40;;;0.65;;
35959;SDS011;22043;50.970;7.192;2022-10-31T13:30:53;2.33;;;0.70;;
35959;SDS011;22043;50.970;7.192;2022-10-31T13:33:24;2.53;;;1.13;;
35959;SDS011;22043;50.970;7.192;2022-10-31T13:36:21;1.25;;;0.82;;
35959;SDS011;22043;50.970;7.192;2022-10-31T13:44:30;1.40;;;0.50;;
35959;SDS011;22043;50.970;7.192;2022-10-31T13:47:00;3.03;;;0.95;;
35959;SDS011;22043;50.970;7.192;2022-10-31T13:49:36;1.63;;;0.68;;
35959;SDS011;22043;50.970;7.192;2022-10-31T13:54:39;1.75;;;0.93;;
35959;SDS011;22043;50.970;7.192;2022-10-31T13:57:07;2.53;;;1.48;;
35959;SDS011;22043;50.970;7.192;2022-10-31T14:00:02;3.00;;;1.63;;
35959;SDS011;22043;50.970;7.192;2022-10-31T14:02:49;1.15;;;0.55;;
35959;SDS011;22043;50.970;7.192;2022-10-31T14:05:25;1.25;;;0.73;;
35959;SDS011;22043;50.970;7.192;2022-10-31T14:07:53;2.15;;;1.40;;
35959;SDS011;22043;50.970;7.192;2022-10-31T14:10:45;0.90;;;0.50;;
35959;SDS011;22043;50.970;7.192;2022-10-31T14:15:53;1.42;;;0.80;;
35959;SDS011;22043;50.970;7.192;2022-10-31T14:18:31;2.50;;;1.05;;
35959;SDS011;22043;50.970;7.192;2022-10-31T14:21:12;2.15;;;0.95;;
35959;SDS011;22043;50.970;7.192;2022-10-31T14:23:52;1.15;;;0.70;;
35959;SDS011;22043;50.970;7.192;2022-10-31T14:29:38;2.45;;;1.42;;
35959;SDS011;22043;50.970;7.192;2022-10-31T14:31:40;0.77;;;0.70;;
35959;SDS011;22043;50.970;7.192;2022-10-31T14:36:46;1.48;;;0.80;;
35959;SDS011;22043;50.970;7.192;2022-10-31T14:39:24;2.63;;;1.35;;
35959;SDS011;22043;50.970;7.192;2022-10-31T14:44:49;2.97;;;1.40;;
35959;SDS011;22043;50.970;7.192;2022-10-31T14:52:46;0.80;;;0.38;;
35959;SDS011;22043;50.970;7.192;2022-10-31T14:55:15;1.83;;;0.57;;
35959;SDS011;22043;50.970;7.192;2022-10-31T14:57:45;1.67;;;0.90;;
35959;SDS011;22043;50.970;7.192;2022-10-31T15:00:20;1.73;;;0.82;;
35959;SDS011;22043;50.970;7.192;2022-10-31T15:02:55;1.85;;;0.90;;
35959;SDS011;22043;50.970;7.192;2022-10-31T15:05:31;1.13;;;0.50;;
35959;SDS011;22043;50.970;7.192;2022-10-31T15:07:59;2.35;;;1.00;;
35959;SDS011;22043;50.970;7.192;2022-10-31T15:10:31;3.55;;;1.35;;
35959;SDS011;22043;50.970;7.192;2022-10-31T15:13:18;1.48;;;0.70;;
35959;SDS011;22043;50.970;7.192;2022-10-31T15:15:46;1.50;;;0.60;;
35959;SDS011;22043;50.970;7.192;2022-10-31T15:18:15;1.52;;;0.93;;
35959;SDS011;22043;50.970;7.192;2022-10-31T15:20:43;1.83;;;0.50;;
35959;SDS011;22043;50.970;7.192;2022-10-31T15:23:11;0.60;;;0.50;;
35959;SDS011;22043;50.970;7.192;2022-10-31T15:25:47;0.93;;;0.55;;
35959;SDS011;22043;50.970;7.192;2022-10-31T15:28:21;1.38;;;0.60;;
35959;SDS011;22043;50.970;7.192;2022-10-31T15:30:55;1.00;;;0.70;;
35959;SDS011;22043;50.970;7.192;2022-10-31T15:33:23;1.05;;;0.75;;
35959;SDS011;22043;50.970;7.192;2022-10-31T15:35:59;2.03;;;1.13;;
35959;SDS011;22043;50.970;7.192;2022-10-31T15:38:27;1.40;;;1.25;;
35959;SDS011;22043;50.970;7.192;2022-10-31T15:41:04;5.18;;;1.40;;
35959;SDS011;22043;50.970;7.192;2022-10-31T15:43:44;1.38;;;0.65;;
35959;SDS011;22043;50.970;7.192;2022-10-31T15:46:11;1.80;;;0.75;;
35959;SDS011;22043;50.970;7.192;2022-10-31T15:48:37;1.23;;;0.57;;
35959;SDS011;22043;50.970;7.192;2022-10-31T15:51:08;1.92;;;0.68;;
35959;SDS011;22043;50.970;7.192;2022-10-31T15:56:13;1.90;;;0.80;;
35959;SDS011;22043;50.970;7.192;2022-10-31T15:58:49;1.48;;;0.50;;
35959;SDS011;22043;50.970;7.192;2022-10-31T16:01:27;1.10;;;0.63;;
35959;SDS011;22043;50.970;7.192;2022-10-31T16:06:29;1.08;;;0.68;;
35959;SDS011;22043;50.970;7.192;2022-10-31T16:08:55;1.17;;;0.60;;
35959;SDS011;22043;50.970;7.192;2022-10-31T16:14:14;1.45;;;0.70;;
35959;SDS011;22043;50.970;7.192;2022-10-31T16:16:42;0.80;;;0.50;;
35959;SDS011;22043;50.970;7.192;2022-10-31T16:19:19;1.80;;;0.45;;
35959;SDS011;22043;50.970;7.192;2022-10-31T16:21:52;2.65;;;0.82;;
35959;SDS011;22043;50.970;7.192;2022-10-31T16:24:30;2.80;;;1.17;;
35959;SDS011;22043;50.970;7.192;2022-10-31T16:29:37;2.40;;;0.63;;
35959;SDS011;22043;50.970;7.192;2022-10-31T16:35:00;2.15;;;1.20;;
35959;SDS011;22043;50.970;7.192;2022-10-31T16:37:38;1.13;;;0.60;;
35959;SDS011;22043;50.970;7.192;2022-10-31T16:40:08;1.80;;;0.80;;
35959;SDS011;22043;50.970;7.192;2022-10-31T16:42:36;3.28;;;1.23;;
35959;SDS011;22043;50.970;7.192;2022-10-31T16:45:01;1.75;;;1.05;;
35959;SDS011;22043;50.970;7.192;2022-10-31T16:47:29;1.48;;;0.63;;
35959;SDS011;22043;50.970;7.192;2022-10-31T16:49:55;1.85;;;0.95;;
35959;SDS011;22043;50.970;7.192;2022-10-31T16:52:25;1.60;;;1.02;;
35959;SDS011;22043;50.970;7.192;2022-10-31T16:54:50;2.10;;;0.80;;
35959;SDS011;22043;50.970;7.192;2022-10-31T16:57:21;1.77;;;0.75;;
35959;SDS011;22043;50.970;7.192;2022-10-31T16:59:52;2.35;;;1.00;;
35959;SDS011;22043;50.970;7.192;2022-10-31T17:02:20;1.85;;;1.45;;
35959;SDS011;22043;50.970;7.192;2022-10-31T17:04:46;1.60;;;1.45;;
35959;SDS011;22043;50.970;7.192;2022-10-31T17:07:12;1.30;;;0.90;;
35959;SDS011;22043;50.970;7.192;2022-10-31T17:09:38;0.98;;;0.63;;
35959;SDS011;22043;50.970;7.192;2022-10-31T17:12:03;2.70;;;1.10;;
35959;SDS011;22043;50.970;7.192;2022-10-31T17:14:32;4.40;;;1.45;;
35959;SDS011;22043;50.970;7.192;2022-10-31T17:16:58;2.30;;;0.90;;
35959;SDS011;22043;50.970;7.192;2022-10-31T17:19:24;1.50;;;0.82;;
35959;SDS011;22043;50.970;7.192;2022-10-31T17:21:50;2.20;;;0.90;;
35959;SDS011;22043;50.970;7.192;2022-10-31T17:24:15;1.77;;;1.10;;
35959;SDS011;22043;50.970;7.192;2022-10-31T17:26:41;2.63;;;1.27;;